Time;durP1;ratioP1;P1;durP2;ratioP2;P2;SDS_P1;SDS_P2;PMS_P1;PMS_P2;Temp;Humidity;BMP_temperature;BMP_pressure;BME280_temperature;BME280_humidity;BME280_pressure;Samples;Min_cycle;Max_cycle;Signal;HPM_P1;HPM_P2
2024/02/01 00:01:57;;;;;;;13.33;8.63;;;;;;;;;;6320758;28;20469;-82
2024/02/01 00:04:57;;;;;;;14.83;8.90;;;;;;;;;;6318167;28;20036;-82
2024/02/01 00:07:58;;;;;;;14.00;8.47;;;;;;;;;;6308660;28;20020;-82
2024/02/01 00:10:58;;;;;;;12.90;8.30;;;;;;;;;;6321976;28;20035;-82
2024/02/01 00:13:59;;;;;;;12.50;7.83;;;;;;;;;;6292436;28;20742;-82
2024/02/01 00:16:59;;;;;;;12.00;7.53;;;;;;;;;;6294548;28;20035;-82
2024/02/01 00:19:59;;;;;;;10.37;7.13;;;;;;;;;;6292230;28;20028;-82
2024/02/01 00:22:59;;;;;;;9.90;7.10;;;;;;;;;;6290416;28;20107;-81
2024/02/01 00:26:00;;;;;;;10.03;6.60;;;;;;;;;;6292479;28;20032;-81
2024/02/01 00:29:00;;;;;;;11.07;7.00;;;;;;;;;;6295265;28;20028;-82
2024/02/01 00:32:00;;;;;;;9.03;6.67;;;;;;;;;;6294688;28;20036;-82
2024/02/01 00:35:00;;;;;;;8.73;6.37;;;;;;;;;;6293364;28;20032;-82
2024/02/01 00:38:01;;;;;;;9.83;5.73;;;;;;;;;;6295142;28;20107;-81
2024/02/01 00:41:04;;;;;;;8.27;6.37;;;;;;;;;;6292952;28;20032;-82
2024/02/01 00:44:05;;;;;;;8.60;6.10;;;;;;;;;;6292928;28;20564;-82
2024/02/01 00:47:07;;;;;;;9.53;6.90;;;;;;;;;;6291523;28;20025;-82
2024/02/01 00:50:07;;;;;;;8.35;6.35;;;;;;;;;;6291511;28;20547;-82
2024/02/01 00:53:08;;;;;;;8.33;6.33;;;;;;;;;;6277456;28;20064;-82
2024/02/01 00:56:08;;;;;;;9.20;6.80;;;;;;;;;;6290416;28;20045;-81
2024/02/01 00:59:08;;;;;;;9.57;6.23;;;;;;;;;;6292797;28;20369;-81
2024/02/01 01:02:08;;;;;;;8.17;6.17;;;;;;;;;;6294607;28;20025;-81
2024/02/01 01:05:09;;;;;;;8.73;6.27;;;;;;;;;;6290488;28;20111;-82
2024/02/01 01:08:09;;;;;;;9.40;6.00;;;;;;;;;;6292581;28;20255;-82
2024/02/01 01:11:10;;;;;;;8.07;6.30;;;;;;;;;;6293646;28;20393;-82
2024/02/01 01:14:10;;;;;;;7.33;6.13;;;;;;;;;;6312865;28;20143;-81
2024/02/01 01:17:10;;;;;;;10.47;6.20;;;;;;;;;;6320218;28;20016;-82
2024/02/01 01:20:11;;;;;;;9.70;6.73;;;;;;;;;;6318148;28;20058;-81
2024/02/01 01:23:11;;;;;;;8.97;6.63;;;;;;;;;;6305281;28;20062;-81
2024/02/01 01:26:12;;;;;;;10.43;6.33;;;;;;;;;;6309576;28;20027;-81
2024/02/01 01:29:12;;;;;;;9.38;6.65;;;;;;;;;;6303361;28;20039;-82
2024/02/01 01:32:12;;;;;;;9.57;6.17;;;;;;;;;;6307354;28;20039;-81
2024/02/01 01:35:13;;;;;;;8.90;6.47;;;;;;;;;;6316583;28;20052;-80
2024/02/01 01:38:13;;;;;;;7.63;5.97;;;;;;;;;;6317391;28;20465;-81
2024/02/01 01:41:13;;;;;;;8.73;6.27;;;;;;;;;;6320032;28;20024;-81
2024/02/01 01:44:13;;;;;;;9.77;6.33;;;;;;;;;;6316963;28;20092;-81
2024/02/01 01:47:14;;;;;;;7.63;5.90;;;;;;;;;;6322760;28;20449;-81
2024/02/01 01:50:14;;;;;;;8.57;6.17;;;;;;;;;;6316804;28;20016;-81
2024/02/01 01:53:15;;;;;;;8.77;6.17;;;;;;;;;;6316263;28;20426;-81
2024/02/01 01:56:16;;;;;;;9.70;6.50;;;;;;;;;;6305103;28;20051;-81
2024/02/01 01:59:16;;;;;;;9.32;6.60;;;;;;;;;;6316101;28;20113;-81
2024/02/01 02:02:16;;;;;;;9.10;6.70;;;;;;;;;;6315915;28;20115;-81
2024/02/01 02:05:17;;;;;;;9.23;6.43;;;;;;;;;;6315619;28;20024;-81
2024/02/01 02:08:17;;;;;;;8.40;6.13;;;;;;;;;;6319416;28;20460;-81
2024/02/01 02:11:17;;;;;;;9.80;6.70;;;;;;;;;;6318914;28;20016;-81
2024/02/01 02:14:18;;;;;;;8.80;6.57;;;;;;;;;;6315785;28;20067;-81
2024/02/01 02:17:18;;;;;;;8.97;6.37;;;;;;;;;;6319909;28;20028;-81
2024/02/01 02:20:19;;;;;;;8.60;6.60;;;;;;;;;;6318046;28;20017;-81
2024/02/01 02:23:19;;;;;;;8.50;5.88;;;;;;;;;;6319959;28;20028;-82
2024/02/01 02:26:20;;;;;;;9.20;6.17;;;;;;;;;;6318108;28;20430;-81
2024/02/01 02:29:20;;;;;;;9.73;6.23;;;;;;;;;;6317993;28;20111;-81
2024/02/01 02:32:23;;;;;;;8.60;6.37;;;;;;;;;;6317699;28;20031;-82
2024/02/01 02:35:23;;;;;;;8.15;6.13;;;;;;;;;;6296712;28;20020;-82
2024/02/01 02:38:23;;;;;;;7.10;5.83;;;;;;;;;;6308959;28;20036;-81
2024/02/01 02:41:23;;;;;;;9.20;6.47;;;;;;;;;;6317641;28;20435;-82
2024/02/01 02:44:24;;;;;;;8.63;5.93;;;;;;;;;;6312147;28;20020;-81
2024/02/01 02:47:24;;;;;;;8.00;5.77;;;;;;;;;;6306047;28;20020;-82
2024/02/01 02:50:24;;;;;;;9.37;6.13;;;;;;;;;;6315683;28;20024;-82
2024/02/01 02:53:25;;;;;;;7.97;6.23;;;;;;;;;;6316121;28;20016;-82
2024/02/01 02:56:25;;;;;;;9.57;6.20;;;;;;;;;;6315245;28;20103;-82
2024/02/01 02:59:25;;;;;;;9.10;5.80;;;;;;;;;;6326390;28;20034;-77
2024/02/01 03:02:25;;;;;;;8.57;5.90;;;;;;;;;;6323800;28;20412;-79
2024/02/01 03:05:26;;;;;;;8.00;5.97;;;;;;;;;;6321200;28;20439;-79
2024/02/01 03:08:26;;;;;;;7.53;5.30;;;;;;;;;;6324172;28;20471;-79
2024/02/01 03:11:27;;;;;;;7.80;5.50;;;;;;;;;;6323401;28;20024;-79
2024/02/01 03:14:27;;;;;;;7.80;5.40;;;;;;;;;;6308058;28;20044;-79
2024/02/01 03:17:27;;;;;;;8.93;5.93;;;;;;;;;;6325079;28;20034;-79
2024/02/01 03:20:28;;;;;;;9.70;5.97;;;;;;;;;;6321549;28;20027;-79
2024/02/01 03:23:28;;;;;;;9.93;6.37;;;;;;;;;;6322653;28;20528;-79
2024/02/01 03:26:34;;;;;;;7.27;5.83;;;;;;;;;;6306973;28;20048;-79
2024/02/01 03:29:35;;;;;;;8.13;5.55;;;;;;;;;;6321601;28;20107;-79
2024/02/01 03:32:36;;;;;;;8.35;5.50;;;;;;;;;;6324018;28;20028;-79
2024/02/01 03:35:37;;;;;;;7.32;5.65;;;;;;;;;;6322536;28;20098;-78
2024/02/01 03:38:37;;;;;;;8.47;5.97;;;;;;;;;;6323648;28;20016;-79
2024/02/01 03:41:38;;;;;;;7.90;5.70;;;;;;;;;;6324562;28;20050;-78
2024/02/01 03:44:39;;;;;;;8.43;5.70;;;;;;;;;;6306629;28;20031;-79
2024/02/01 03:47:39;;;;;;;7.85;5.70;;;;;;;;;;6324105;28;20165;-79
2024/02/01 03:50:39;;;;;;;7.87;5.67;;;;;;;;;;6318056;28;20770;-79
2024/02/01 03:53:40;;;;;;;8.60;6.00;;;;;;;;;;6323639;28;20020;-79
2024/02/01 03:56:40;;;;;;;7.33;5.57;;;;;;;;;;6324233;28;20052;-79
2024/02/01 03:59:42;;;;;;;7.47;5.43;;;;;;;;;;6325785;28;20521;-79
2024/02/01 04:02:42;;;;;;;8.45;5.50;;;;;;;;;;6322912;28;20040;-78
2024/02/01 04:05:43;;;;;;;7.57;5.67;;;;;;;;;;6323921;28;20107;-79
2024/02/01 04:08:43;;;;;;;9.30;5.87;;;;;;;;;;6322683;28;20054;-79
2024/02/01 04:11:43;;;;;;;7.93;5.23;;;;;;;;;;6321337;28;20020;-77
2024/02/01 04:14:44;;;;;;;8.07;5.37;;;;;;;;;;6318678;28;20074;-78
2024/02/01 04:17:44;;;;;;;9.70;5.80;;;;;;;;;;6313550;28;20031;-79
2024/02/01 04:20:44;;;;;;;8.40;5.77;;;;;;;;;;6308651;28;20045;-79
2024/02/01 04:23:45;;;;;;;8.70;5.43;;;;;;;;;;6318284;28;20066;-79
2024/02/01 04:26:45;;;;;;;8.33;5.53;;;;;;;;;;6321413;28;20023;-79
2024/02/01 04:29:46;;;;;;;7.37;5.67;;;;;;;;;;6318319;28;20016;-79
2024/02/01 04:32:47;;;;;;;6.23;5.00;;;;;;;;;;6318191;28;20109;-79
2024/02/01 04:35:47;;;;;;;7.57;5.25;;;;;;;;;;6318523;28;20380;-78
2024/02/01 04:38:49;;;;;;;7.53;5.17;;;;;;;;;;6320016;28;20027;-79
2024/02/01 04:41:53;;;;;;;6.85;5.35;;;;;;;;;;6321174;28;20103;-78
2024/02/01 04:44:57;;;;;;;6.55;5.40;;;;;;;;;;6318504;28;20066;-79
2024/02/01 04:47:58;;;;;;;8.15;6.15;;;;;;;;;;6316980;28;20082;-78
2024/02/01 04:50:58;;;;;;;8.20;5.50;;;;;;;;;;6318459;28;20096;-79
2024/02/01 04:53:58;;;;;;;7.00;5.37;;;;;;;;;;6320924;28;20457;-78
2024/02/01 04:56:59;;;;;;;6.63;5.30;;;;;;;;;;6315377;28;20404;-78
2024/02/01 04:59:59;;;;;;;6.47;5.07;;;;;;;;;;6309298;28;20020;-79
2024/02/01 05:02:59;;;;;;;6.10;4.73;;;;;;;;;;6320591;28;20031;-79
2024/02/01 05:06:00;;;;;;;6.57;4.37;;;;;;;;;;6316754;28;20460;-78
2024/02/01 05:09:00;;;;;;;4.73;4.00;;;;;;;;;;6320203;28;20498;-79
2024/02/01 05:12:01;;;;;;;6.73;3.80;;;;;;;;;;6318218;28;21784;-78
2024/02/01 05:15:03;;;;;;;4.35;3.38;;;;;;;;;;6316789;28;20095;-79
2024/02/01 05:18:05;;;;;;;4.72;2.97;;;;;;;;;;6319502;28;20171;-78
2024/02/01 05:21:05;;;;;;;4.18;3.40;;;;;;;;;;6309794;28;20054;-79
2024/02/01 05:24:05;;;;;;;4.60;2.97;;;;;;;;;;6315512;28;20032;-78
2024/02/01 05:27:08;;;;;;;4.10;3.03;;;;;;;;;;6311976;28;20020;-78
2024/02/01 05:30:09;;;;;;;4.18;3.03;;;;;;;;;;6311638;28;21754;-79
2024/02/01 05:33:09;;;;;;;5.07;2.90;;;;;;;;;;6305672;28;20099;-79
2024/02/01 05:36:09;;;;;;;4.37;3.37;;;;;;;;;;6305990;28;20433;-78
2024/02/01 05:39:24;;;;;;;4.07;3.00;;;;;;;;;;6308321;28;20108;-79
2024/02/01 05:42:24;;;;;;;4.88;3.42;;;;;;;;;;6308330;28;20032;-79
2024/02/01 05:45:28;;;;;;;4.33;3.03;;;;;;;;;;6308688;28;20089;-80
2024/02/01 05:48:28;;;;;;;4.25;3.10;;;;;;;;;;6310599;28;20107;-79
2024/02/01 05:51:28;;;;;;;4.03;2.87;;;;;;;;;;6309447;28;20024;-80
2024/02/01 05:54:28;;;;;;;3.17;2.40;;;;;;;;;;6308142;28;20048;-79
2024/02/01 05:57:29;;;;;;;3.87;3.20;;;;;;;;;;6308524;28;20061;-79
2024/02/01 06:00:29;;;;;;;4.90;3.57;;;;;;;;;;6306105;28;20026;-79
2024/02/01 06:03:29;;;;;;;4.07;3.07;;;;;;;;;;6316534;28;20554;-79
2024/02/01 06:06:30;;;;;;;4.77;3.40;;;;;;;;;;6315137;28;20047;-78
2024/02/01 06:09:30;;;;;;;3.90;3.00;;;;;;;;;;6316487;28;20463;-80
2024/02/01 06:12:30;;;;;;;4.07;3.00;;;;;;;;;;6328198;27;20051;-79
2024/02/01 06:15:31;;;;;;;5.97;3.37;;;;;;;;;;6367131;27;20522;-79
2024/02/01 06:18:32;;;;;;;3.63;3.00;;;;;;;;;;6365229;27;20058;-78
2024/02/01 06:21:32;;;;;;;5.07;3.45;;;;;;;;;;6366433;27;20019;-79
2024/02/01 06:24:33;;;;;;;6.57;4.23;;;;;;;;;;6366588;27;20035;-79
2024/02/01 06:27:33;;;;;;;4.87;3.43;;;;;;;;;;6367251;27;20038;-81
2024/02/01 06:30:35;;;;;;;4.23;3.30;;;;;;;;;;6365637;27;20110;-80
2024/02/01 06:33:36;;;;;;;4.38;3.47;;;;;;;;;;6365883;27;20027;-80
2024/02/01 06:36:39;;;;;;;4.32;3.20;;;;;;;;;;6366465;27;20477;-80
2024/02/01 06:39:58;;;;;;;4.72;3.17;;;;;;;;;;6365936;27;20064;-79
2024/02/01 06:46:48;;;;;;;5.07;3.00;;;;;;;;;;6330929;27;20035;-82
2024/02/01 06:50:00;;;;;;;4.30;3.03;;;;;;;;;;6363476;27;20031;-81
2024/02/01 06:53:08;;;;;;;4.00;3.00;;;;;;;;;;6364758;27;20038;-83
2024/02/01 06:56:18;;;;;;;4.03;2.65;;;;;;;;;;6366642;28;20019;-83
2024/02/01 06:59:31;;;;;;;3.67;2.50;;;;;;;;;;6365180;28;20020;-84
2024/02/01 07:03:02;;;;;;;4.38;2.78;;;;;;;;;;6369156;27;20027;-82
2024/02/01 07:06:25;;;;;;;2.95;2.47;;;;;;;;;;6365057;28;20027;-83
2024/02/01 07:09:28;;;;;;;2.78;2.30;;;;;;;;;;6366475;28;20015;-84
2024/02/01 07:12:53;;;;;;;3.85;2.50;;;;;;;;;;6350999;28;20043;-85
2024/02/01 07:16:04;;;;;;;3.28;2.35;;;;;;;;;;6348439;28;20042;-84
2024/02/01 07:19:23;;;;;;;3.55;2.83;;;;;;;;;;6363329;28;20196;-84
2024/02/01 07:22:39;;;;;;;5.50;2.65;;;;;;;;;;6365452;28;20050;-88
2024/02/01 07:25:49;;;;;;;3.38;2.78;;;;;;;;;;6364548;28;20142;-85
2024/02/01 07:59:02;;;;;;;3.05;2.25;;;;;;;;;;6370137;27;20027;-83
2024/02/01 08:02:13;;;;;;;2.03;1.80;;;;;;;;;;6369291;27;20027;-84
2024/02/01 08:08:32;;;;;;;3.13;2.05;;;;;;;;;;6369529;27;20035;-83
2024/02/01 08:11:32;;;;;;;3.93;2.07;;;;;;;;;;6371422;27;20509;-83
2024/02/01 08:14:32;;;;;;;3.77;2.10;;;;;;;;;;6342262;27;20073;-84
2024/02/01 08:17:36;;;;;;;2.67;1.87;;;;;;;;;;6349565;28;20111;-83
2024/02/01 08:20:42;;;;;;;2.08;1.88;;;;;;;;;;6347443;28;20028;-83
2024/02/01 08:23:43;;;;;;;2.15;1.85;;;;;;;;;;6332834;28;20024;-83
2024/02/01 08:26:45;;;;;;;3.33;1.88;;;;;;;;;;6333054;28;20039;-83
2024/02/01 08:29:45;;;;;;;2.28;1.92;;;;;;;;;;6351015;28;20015;-83
2024/02/01 08:32:46;;;;;;;2.60;1.77;;;;;;;;;;6350314;28;20069;-83
2024/02/01 08:35:47;;;;;;;2.42;1.95;;;;;;;;;;6340191;28;20507;-83
2024/02/01 08:38:48;;;;;;;3.80;1.93;;;;;;;;;;6347050;28;20027;-83
2024/02/01 08:41:48;;;;;;;4.10;2.00;;;;;;;;;;6346267;27;20273;-83
2024/02/01 08:44:48;;;;;;;2.90;2.23;;;;;;;;;;6330473;28;20027;-81
2024/02/01 08:47:48;;;;;;;2.50;1.77;;;;;;;;;;6347587;28;20094;-81
2024/02/01 08:50:52;;;;;;;2.87;2.20;;;;;;;;;;6327414;28;20380;-81
2024/02/01 08:53:53;;;;;;;2.60;2.17;;;;;;;;;;6325994;28;20044;-81
2024/02/01 08:56:53;;;;;;;2.70;1.95;;;;;;;;;;6344109;28;20209;-81
2024/02/01 08:59:53;;;;;;;2.80;1.70;;;;;;;;;;6345161;28;20068;-81
2024/02/01 09:03:03;;;;;;;2.83;2.10;;;;;;;;;;6341454;28;20123;-82
2024/02/01 09:06:09;;;;;;;2.55;1.80;;;;;;;;;;6341244;28;20035;-83
2024/02/01 09:09:28;;;;;;;2.00;1.75;;;;;;;;;;6327338;28;20028;-84
2024/02/01 09:12:29;;;;;;;2.83;1.80;;;;;;;;;;6335895;28;20082;-83
2024/02/01 09:15:32;;;;;;;2.80;1.70;;;;;;;;;;6340928;28;20068;-84
2024/02/01 09:18:33;;;;;;;2.40;1.88;;;;;;;;;;6342717;28;20020;-84
2024/02/01 09:21:33;;;;;;;2.43;1.73;;;;;;;;;;6345344;28;20019;-84
2024/02/01 09:24:34;;;;;;;3.60;1.70;;;;;;;;;;6348240;27;20115;-84
2024/02/01 09:27:34;;;;;;;3.47;2.10;;;;;;;;;;6354969;27;20023;-84
2024/02/01 09:30:34;;;;;;;3.47;2.47;;;;;;;;;;6349174;28;20153;-85
2024/02/01 09:33:36;;;;;;;2.38;1.90;;;;;;;;;;6346839;28;20051;-84
2024/02/01 09:36:37;;;;;;;3.45;1.85;;;;;;;;;;6324603;28;20131;-84
2024/02/01 09:39:39;;;;;;;2.35;1.77;;;;;;;;;;6340061;28;20023;-85
2024/02/01 09:42:41;;;;;;;2.80;1.73;;;;;;;;;;6345749;28;20046;-85
2024/02/01 09:45:42;;;;;;;2.40;1.70;;;;;;;;;;6335754;28;20035;-85
2024/02/01 09:48:43;;;;;;;2.50;1.80;;;;;;;;;;6325471;28;20441;-85
2024/02/01 09:51:46;;;;;;;;;;;;;;;;;;6333480;28;20039;-85
2024/02/01 09:54:47;;;;;;;1.52;1.33;;;;;;;;;;6342096;28;19912;-84
2024/02/01 09:57:48;;;;;;;2.43;1.47;;;;;;;;;;6335179;28;20101;-85
2024/02/01 10:00:48;;;;;;;1.98;1.70;;;;;;;;;;6318090;28;20028;-85
2024/02/01 10:03:51;;;;;;;2.27;1.93;;;;;;;;;;6332341;28;20473;-86
2024/02/01 10:06:51;;;;;;;1.83;1.67;;;;;;;;;;5973371;28;10000014;-84
2024/02/01 10:09:51;;;;;;;2.10;1.90;;;;;;;;;;6324645;28;20032;-84
2024/02/01 10:12:54;;;;;;;2.57;1.57;;;;;;;;;;6340156;28;20462;-83
2024/02/01 10:15:55;;;;;;;3.30;1.55;;;;;;;;;;6330668;28;20023;-84
2024/02/01 10:19:08;;;;;;;2.37;1.67;;;;;;;;;;6346682;28;20076;-84
2024/02/01 10:22:09;;;;;;;2.38;1.73;;;;;;;;;;6345156;28;20024;-84
2024/02/01 10:25:09;;;;;;;1.70;1.52;;;;;;;;;;6346757;28;20019;-84
2024/02/01 10:28:11;;;;;;;2.03;1.73;;;;;;;;;;6334657;28;20032;-84
2024/02/01 10:31:12;;;;;;;2.20;1.55;;;;;;;;;;6345666;28;20020;-84
2024/02/01 10:34:13;;;;;;;1.80;1.47;;;;;;;;;;6346937;28;20062;-84
2024/02/01 10:37:13;;;;;;;2.05;1.63;;;;;;;;;;6320003;28;20031;-83
2024/02/01 10:40:15;;;;;;;4.83;1.80;;;;;;;;;;6341629;28;20040;-83
2024/02/01 10:43:36;;;;;;;2.83;1.75;;;;;;;;;;6347504;28;20048;-83
2024/02/01 10:46:41;;;;;;;1.88;1.58;;;;;;;;;;6347198;28;20499;-83
2024/02/01 10:49:52;;;;;;;3.05;2.00;;;;;;;;;;6345238;28;20023;-83
2024/02/01 10:52:53;;;;;;;2.03;1.80;;;;;;;;;;6345907;28;20028;-83
2024/02/01 10:55:54;;;;;;;1.90;1.60;;;;;;;;;;6317593;28;20278;-83
2024/02/01 10:58:54;;;;;;;1.70;1.40;;;;;;;;;;6343358;28;20036;-83
2024/02/01 11:01:54;;;;;;;5.80;1.60;;;;;;;;;;6347335;28;20119;-83
2024/02/01 11:04:55;;;;;;;2.30;1.55;;;;;;;;;;6329753;28;20070;-81
2024/02/01 11:07:56;;;;;;;2.33;1.43;;;;;;;;;;6347048;28;20114;-81
2024/02/01 11:11:00;;;;;;;2.30;1.60;;;;;;;;;;6344730;28;20020;-79
2024/02/01 11:14:06;;;;;;;2.65;1.75;;;;;;;;;;6335454;28;20069;-80
2024/02/01 11:17:16;;;;;;;3.20;1.67;;;;;;;;;;6336688;28;20027;-84
2024/02/01 11:20:25;;;;;;;2.33;1.70;;;;;;;;;;6353141;27;20030;-84
2024/02/01 11:23:35;;;;;;;3.35;1.70;;;;;;;;;;6349382;28;20023;-85
2024/02/01 11:26:41;;;;;;;3.67;1.70;;;;;;;;;;6349447;28;20419;-84
2024/02/01 11:29:45;;;;;;;2.05;1.65;;;;;;;;;;6351527;28;20095;-85
2024/02/01 11:32:46;;;;;;;1.60;1.45;;;;;;;;;;6351240;28;20020;-84
2024/02/01 11:35:47;;;;;;;2.55;1.77;;;;;;;;;;6347248;28;20062;-84
2024/02/01 11:38:50;;;;;;;2.77;1.77;;;;;;;;;;6344200;28;20027;-84
2024/02/01 11:41:51;;;;;;;2.88;1.70;;;;;;;;;;6352242;28;20034;-83
2024/02/01 11:44:51;;;;;;;2.20;1.70;;;;;;;;;;6349929;28;20069;-83
2024/02/01 11:47:53;;;;;;;1.50;1.20;;;;;;;;;;6351183;28;20063;-82
2024/02/01 11:50:59;;;;;;;3.13;1.77;;;;;;;;;;6349657;28;20023;-83
2024/02/01 11:54:00;;;;;;;2.03;1.58;;;;;;;;;;6346300;28;20110;-83
2024/02/01 11:57:00;;;;;;;1.95;1.42;;;;;;;;;;6351317;28;20020;-84
2024/02/01 12:00:12;;;;;;;2.10;1.50;;;;;;;;;;6351640;28;20036;-84
2024/02/01 12:03:12;;;;;;;2.58;1.40;;;;;;;;;;6331843;28;20503;-80
2024/02/01 12:06:14;;;;;;;2.17;1.50;;;;;;;;;;6343407;28;20036;-79
2024/02/01 12:09:14;;;;;;;1.40;1.30;;;;;;;;;;6344937;28;20024;-80
2024/02/01 12:12:16;;;;;;;2.97;1.27;;;;;;;;;;6347450;28;20502;-81
2024/02/01 12:15:16;;;;;;;1.48;1.17;;;;;;;;;;6350961;28;20071;-82
2024/02/01 12:18:17;;;;;;;1.50;1.30;;;;;;;;;;6331337;28;20073;-82
2024/02/01 12:21:26;;;;;;;2.42;1.60;;;;;;;;;;6350155;28;20028;-83
2024/02/01 12:24:27;;;;;;;1.63;1.05;;;;;;;;;;6349934;28;20540;-82
2024/02/01 12:27:27;;;;;;;1.83;1.37;;;;;;;;;;6349587;28;20019;-80
2024/02/01 12:30:28;;;;;;;1.97;1.13;;;;;;;;;;6348103;28;20019;-82
2024/02/01 12:33:29;;;;;;;3.03;1.20;;;;;;;;;;6349869;28;20102;-80
2024/02/01 12:36:30;;;;;;;2.37;1.20;;;;;;;;;;6347630;28;20028;-82
2024/02/01 12:39:34;;;;;;;1.60;1.15;;;;;;;;;;6332709;28;20020;-81
2024/02/01 12:42:34;;;;;;;4.35;2.10;;;;;;;;;;6332506;28;20040;-80
2024/02/01 12:45:34;;;;;;;3.00;1.97;;;;;;;;;;6349778;28;20028;-80
2024/02/01 12:48:37;;;;;;;1.60;1.20;;;;;;;;;;6348584;28;20394;-79
2024/02/01 12:51:37;;;;;;;1.38;1.23;;;;;;;;;;6349154;28;20415;-79
2024/02/01 12:54:40;;;;;;;1.53;1.10;;;;;;;;;;6330813;28;20035;-79
2024/02/01 12:57:42;;;;;;;1.40;1.08;;;;;;;;;;6350915;28;20027;-79
2024/02/01 13:00:42;;;;;;;0.95;0.82;;;;;;;;;;6349306;28;20431;-78
2024/02/01 13:03:44;;;;;;;1.07;0.80;;;;;;;;;;6349838;28;20032;-82
2024/02/01 13:06:44;;;;;;;1.35;0.90;;;;;;;;;;6349883;28;20087;-79
2024/02/01 13:09:44;;;;;;;0.77;0.77;;;;;;;;;;6349117;28;20030;-79
2024/02/01 13:12:54;;;;;;;0.90;0.73;;;;;;;;;;6348717;28;20048;-79
2024/02/01 13:15:54;;;;;;;1.00;0.80;;;;;;;;;;6350657;28;20022;-79
2024/02/01 13:18:55;;;;;;;1.20;1.00;;;;;;;;;;6348646;28;20471;-80
2024/02/01 13:21:55;;;;;;;2.37;0.87;;;;;;;;;;6349490;28;20028;-79
2024/02/01 13:24:55;;;;;;;1.07;0.70;;;;;;;;;;6349907;28;20070;-79
2024/02/01 13:27:56;;;;;;;1.70;0.93;;;;;;;;;;6345725;28;20019;-79
2024/02/01 13:30:57;;;;;;;1.00;0.90;;;;;;;;;;6349116;28;20454;-79
2024/02/01 13:33:59;;;;;;;0.67;0.67;;;;;;;;;;6329828;28;20027;-82
2024/02/01 13:36:59;;;;;;;1.60;1.00;;;;;;;;;;6345637;28;20027;-80
2024/02/01 13:40:00;;;;;;;0.73;0.70;;;;;;;;;;6349506;28;20037;-81
2024/02/01 13:43:01;;;;;;;1.37;0.90;;;;;;;;;;6307839;28;20039;-82
2024/02/01 13:46:01;;;;;;;1.08;0.90;;;;;;;;;;6345076;28;20034;-82
2024/02/01 13:49:02;;;;;;;1.00;0.90;;;;;;;;;;6347474;28;20032;-82
2024/02/01 13:52:03;;;;;;;1.20;1.08;;;;;;;;;;6348603;28;20126;-83
2024/02/01 13:55:03;;;;;;;1.33;0.83;;;;;;;;;;6348560;28;20080;-85
2024/02/01 13:58:03;;;;;;;0.70;0.70;;;;;;;;;;6325379;28;20551;-82
2024/02/01 14:01:04;;;;;;;0.73;0.70;;;;;;;;;;6321919;28;20023;-83
2024/02/01 14:04:04;;;;;;;0.90;0.70;;;;;;;;;;6347559;28;20059;-82
2024/02/01 14:07:05;;;;;;;3.93;2.17;;;;;;;;;;6320958;28;20024;-82
2024/02/01 14:10:07;;;;;;;2.03;1.30;;;;;;;;;;6326042;28;20020;-81
2024/02/01 14:13:08;;;;;;;1.08;0.90;;;;;;;;;;6320168;28;20324;-82
2024/02/01 14:16:08;;;;;;;0.83;0.73;;;;;;;;;;6332653;27;20049;-82
2024/02/01 14:19:09;;;;;;;0.80;0.57;;;;;;;;;;6352825;27;20077;-81
2024/02/01 14:22:09;;;;;;;0.87;0.80;;;;;;;;;;6329662;28;20032;-82
2024/02/01 14:25:13;;;;;;;1.07;0.60;;;;;;;;;;6330292;28;20020;-82
2024/02/01 14:28:13;;;;;;;1.00;0.70;;;;;;;;;;6346383;28;20460;-82
2024/02/01 14:31:13;;;;;;;0.93;0.60;;;;;;;;;;6313182;28;20030;-81
2024/02/01 14:34:14;;;;;;;1.10;0.90;;;;;;;;;;6345793;28;20023;-83
2024/02/01 14:37:16;;;;;;;2.33;1.27;;;;;;;;;;6342153;28;20023;-82
2024/02/01 14:40:16;;;;;;;2.13;1.00;;;;;;;;;;6348311;28;20020;-82
2024/02/01 14:43:16;;;;;;;0.97;0.70;;;;;;;;;;6346863;28;20479;-81
2024/02/01 14:46:17;;;;;;;1.13;0.67;;;;;;;;;;6347987;28;20102;-82
2024/02/01 14:49:17;;;;;;;0.80;0.70;;;;;;;;;;6329444;28;20016;-82
2024/02/01 14:52:18;;;;;;;0.53;0.53;;;;;;;;;;6344830;28;20023;-82
2024/02/01 14:55:18;;;;;;;0.82;0.70;;;;;;;;;;6329122;28;20020;-82
2024/02/01 14:58:19;;;;;;;0.93;0.70;;;;;;;;;;6348376;28;20024;-82
2024/02/01 15:01:19;;;;;;;0.63;0.57;;;;;;;;;;6320291;28;20561;-82
2024/02/01 15:04:19;;;;;;;1.20;0.70;;;;;;;;;;6328912;28;20353;-82
2024/02/01 15:07:20;;;;;;;0.80;0.63;;;;;;;;;;6329164;28;20452;-84
2024/02/01 15:10:20;;;;;;;1.02;0.77;;;;;;;;;;6324423;28;20422;-83
2024/02/01 15:13:21;;;;;;;0.70;0.70;;;;;;;;;;6334941;28;20055;-82
2024/02/01 15:16:22;;;;;;;0.70;0.53;;;;;;;;;;6343051;28;20089;-85
2024/02/01 15:19:22;;;;;;;0.73;0.68;;;;;;;;;;5968025;28;10000222;-84
2024/02/01 15:22:22;;;;;;;1.27;0.80;;;;;;;;;;6347439;28;20038;-82
2024/02/01 15:25:22;;;;;;;0.80;0.70;;;;;;;;;;6346213;28;20495;-83
2024/02/01 15:28:23;;;;;;;0.83;0.67;;;;;;;;;;6346558;28;20012;-83
2024/02/01 15:31:23;;;;;;;0.83;0.60;;;;;;;;;;6345567;28;20107;-83
2024/02/01 15:34:23;;;;;;;0.67;0.57;;;;;;;;;;6320777;28;20472;-83
2024/02/01 15:37:23;;;;;;;0.67;0.60;;;;;;;;;;6318500;28;20502;-82
2024/02/01 15:40:26;;;;;;;0.80;0.67;;;;;;;;;;6347145;28;20016;-82
2024/02/01 15:43:27;;;;;;;0.70;0.52;;;;;;;;;;6329119;28;20035;-82
2024/02/01 15:46:27;;;;;;;1.27;0.70;;;;;;;;;;6345775;28;20030;-82
2024/02/01 15:49:28;;;;;;;0.67;0.67;;;;;;;;;;6345260;28;20034;-83
2024/02/01 15:52:28;;;;;;;0.85;0.77;;;;;;;;;;6346441;28;20030;-82
2024/02/01 15:55:29;;;;;;;0.53;0.50;;;;;;;;;;6345514;28;20027;-82
2024/02/01 15:58:29;;;;;;;0.60;0.60;;;;;;;;;;6347967;28;20475;-83
2024/02/01 16:01:30;;;;;;;1.03;0.73;;;;;;;;;;6344262;28;20320;-84
2024/02/01 16:04:30;;;;;;;0.93;0.80;;;;;;;;;;6321615;28;20081;-84
2024/02/01 16:07:30;;;;;;;2.33;1.70;;;;;;;;;;6335599;28;20041;-83
2024/02/01 16:10:31;;;;;;;1.33;1.20;;;;;;;;;;6330207;28;20031;-84
2024/02/01 16:13:34;;;;;;;0.93;0.80;;;;;;;;;;6346716;28;20051;-83
2024/02/01 16:16:36;;;;;;;0.93;0.70;;;;;;;;;;6350999;28;20102;-84
2024/02/01 16:19:37;;;;;;;1.42;1.00;;;;;;;;;;6329402;28;20476;-79
2024/02/01 16:22:44;;;;;;;1.38;1.00;;;;;;;;;;6351413;28;20036;-81
2024/02/01 16:25:45;;;;;;;1.50;0.73;;;;;;;;;;6344876;28;20059;-85
2024/02/01 16:28:46;;;;;;;0.97;0.80;;;;;;;;;;6350699;28;20452;-83
2024/02/01 16:31:46;;;;;;;0.80;0.70;;;;;;;;;;6347182;28;20008;-81
2024/02/01 16:34:47;;;;;;;7.47;0.90;;;;;;;;;;6322602;28;20614;-81
2024/02/01 16:37:48;;;;;;;1.45;0.80;;;;;;;;;;6350937;28;20028;-81
2024/02/01 16:40:49;;;;;;;0.80;0.77;;;;;;;;;;6352483;28;20023;-81
2024/02/01 16:43:49;;;;;;;0.90;0.85;;;;;;;;;;6327316;28;20478;-81
2024/02/01 16:46:51;;;;;;;1.10;0.80;;;;;;;;;;6340221;28;20027;-85
2024/02/01 16:49:51;;;;;;;1.05;0.70;;;;;;;;;;6332259;28;20023;-83
2024/02/01 16:52:52;;;;;;;0.70;0.70;;;;;;;;;;6339646;28;20389;-81
2024/02/01 16:55:55;;;;;;;0.97;0.77;;;;;;;;;;6348075;28;20012;-80
2024/02/01 16:58:55;;;;;;;0.95;0.75;;;;;;;;;;6351023;28;20020;-80
2024/02/01 17:01:57;;;;;;;1.57;0.80;;;;;;;;;;6347998;28;20050;-80
2024/02/01 17:04:58;;;;;;;0.70;0.70;;;;;;;;;;6348957;28;20024;-80
2024/02/01 17:07:59;;;;;;;0.75;0.75;;;;;;;;;;6349590;28;20453;-80
2024/02/01 17:11:01;;;;;;;1.23;0.98;;;;;;;;;;6351344;28;20026;-81
2024/02/01 17:14:05;;;;;;;1.20;1.10;;;;;;;;;;6346803;28;20535;-82
2024/02/01 17:17:06;;;;;;;1.77;1.10;;;;;;;;;;6346666;28;20031;-82
2024/02/01 17:20:10;;;;;;;1.20;0.90;;;;;;;;;;6335122;28;20099;-82
2024/02/01 17:23:12;;;;;;;1.40;1.00;;;;;;;;;;6338807;28;20040;-81
2024/02/01 17:26:17;;;;;;;1.25;1.15;;;;;;;;;;6348955;28;20091;-85
2024/02/01 17:29:21;;;;;;;0.85;0.73;;;;;;;;;;6349750;28;20028;-86
2024/02/01 17:32:21;;;;;;;1.30;0.90;;;;;;;;;;6344793;28;20112;-86
2024/02/01 17:35:22;;;;;;;1.83;0.93;;;;;;;;;;6329298;28;20456;-82
2024/02/01 17:38:28;;;;;;;2.10;0.93;;;;;;;;;;6349268;28;20053;-81
2024/02/01 17:41:33;;;;;;;0.77;0.77;;;;;;;;;;6343406;28;20045;-82
2024/02/01 17:44:34;;;;;;;1.38;1.00;;;;;;;;;;6348535;28;20460;-80
2024/02/01 17:47:34;;;;;;;1.23;0.85;;;;;;;;;;6346673;28;20031;-84
2024/02/01 17:50:35;;;;;;;2.10;1.00;;;;;;;;;;6310861;28;20503;-85
2024/02/01 17:53:36;;;;;;;1.05;0.82;;;;;;;;;;6336895;28;20103;-84
2024/02/01 17:56:36;;;;;;;1.00;0.90;;;;;;;;;;6349051;28;20023;-86
2024/02/01 17:59:38;;;;;;;0.73;0.73;;;;;;;;;;6347256;28;20022;-82
2024/02/01 18:02:38;;;;;;;1.38;0.90;;;;;;;;;;6342595;28;20036;-82
2024/02/01 18:05:38;;;;;;;1.10;1.00;;;;;;;;;;6341029;28;20034;-82
2024/02/01 18:08:42;;;;;;;1.17;1.07;;;;;;;;;;6351138;28;20525;-81
2024/02/01 18:14:43;;;;;;;1.20;0.93;;;;;;;;;;6348879;28;20047;-82
2024/02/01 18:17:43;;;;;;;;;;;;;;;;;;6349965;28;20057;-84
2024/02/01 18:20:44;;;;;;;0.70;0.70;;;;;;;;;;6339576;28;19916;-83
2024/02/01 18:23:45;;;;;;;1.20;0.60;;;;;;;;;;6345028;28;20043;-83
2024/02/01 18:26:45;;;;;;;1.00;0.70;;;;;;;;;;6342959;28;20023;-84
2024/02/01 18:29:50;;;;;;;0.67;0.60;;;;;;;;;;6345480;28;20399;-84
2024/02/01 18:32:50;;;;;;;2.53;0.80;;;;;;;;;;6342796;28;20026;-84
2024/02/01 18:35:51;;;;;;;0.90;0.60;;;;;;;;;;6345710;28;20023;-84
2024/02/01 18:38:52;;;;;;;3.92;2.38;;;;;;;;;;6340983;28;20019;-84
2024/02/01 18:41:57;;;;;;;1.83;1.67;;;;;;;;;;6309181;28;20047;-83
2024/02/01 18:44:59;;;;;;;1.50;1.20;;;;;;;;;;6314873;28;20024;-83
2024/02/01 18:47:59;;;;;;;1.05;0.95;;;;;;;;;;6337872;28;20068;-83
2024/02/01 18:51:01;;;;;;;1.50;1.10;;;;;;;;;;6316445;28;20015;-83